Time;durP1;ratioP1;P1;durP2;ratioP2;P2;SDS_P1;SDS_P2;PMS_P1;PMS_P2;Temp;Humidity;BMP_temperature;BMP_pressure;BME280_temperature;BME280_humidity;BME280_pressure;Samples;Min_cycle;Max_cycle;Signal;HPM_P1;HPM_P2
2022/08/24 10:53:35;;;;;;;0.30;0.20;;;;;;;26.73;50.10;98588.25;2070827;27;20200;-45
2022/08/24 10:54:36;;;;;;;0.50;0.50;;;;;;;26.74;50.30;98584.44;2114576;27;20050;-44
2022/08/24 10:55:39;;;;;;;0.30;0.28;;;;;;;26.76;50.62;98592.34;2115704;27;20051;-47
2022/08/24 10:56:55;;;;;;;0.73;0.57;;;;;;;26.79;50.42;98598.09;2110649;27;20066;-46
2022/08/24 10:58:12;;;;;;;0.40;0.30;;;;;;;26.81;50.51;98598.66;2104948;28;20063;-45
2022/08/24 10:59:23;;;;;;;0.57;0.50;;;;;;;26.85;50.09;98582.63;2102670;28;20048;-45
2022/08/24 11:00:26;;;;;;;;;;;;;;;26.85;49.83;98596.25;2106513;27;20486;-49
2022/08/24 11:01:30;;;;;;;0.30;0.30;;;;;;;26.88;50.23;98591.09;2104541;27;20011;-45
2022/08/24 11:02:34;;;;;;;0.90;0.30;;;;;;;26.92;49.89;98592.22;2103979;28;20055;-47
2022/08/24 11:03:49;;;;;;;0.40;0.40;;;;;;;26.95;49.73;98585.44;2103120;28;20127;-46
2022/08/24 11:04:55;;;;;;;0.45;0.43;;;;;;;26.99;49.81;98583.84;2102591;28;20052;-46
2022/08/24 11:05:57;;;;;;;0.68;0.30;;;;;;;27.03;49.92;98587.69;2102332;28;20573;-44
2022/08/24 11:07:15;;;;;;;0.40;0.40;;;;;;;27.06;49.33;98586.34;2104475;28;20052;-46
2022/08/24 11:08:20;;;;;;;0.43;0.30;;;;;;;27.09;49.37;98585.84;2101746;28;20052;-46
2022/08/24 11:09:24;;;;;;;0.50;0.30;;;;;;;27.10;49.29;98577.38;2102713;28;20033;-47
2022/08/24 11:10:27;;;;;;;0.20;0.10;;;;;;;27.13;49.52;98581.50;2101911;28;20048;-47
2022/08/24 11:11:34;;;;;;;2.88;0.40;;;;;;;27.15;49.38;98579.34;2105349;28;20052;-46
2022/08/24 11:12:38;;;;;;;0.80;0.30;;;;;;;27.16;49.03;98581.00;2103434;28;21088;-46
2022/08/24 11:13:52;;;;;;;0.60;0.60;;;;;;;27.17;49.40;98582.66;2106053;28;20375;-46
2022/08/24 11:14:56;;;;;;;0.40;0.28;;;;;;;27.20;49.02;98581.31;2104715;28;20059;-46
2022/08/24 11:16:00;;;;;;;0.57;0.43;;;;;;;27.21;49.26;98585.69;2103241;28;20055;-45
2022/08/24 11:17:15;;;;;;;0.50;0.50;;;;;;;27.22;49.28;98587.31;2109480;28;20048;-47
2022/08/24 11:18:16;;;;;;;0.73;0.25;;;;;;;27.23;49.07;98581.59;2105868;28;20142;-47
2022/08/24 11:19:32;;;;;;;0.40;0.40;;;;;;;27.25;48.92;98573.19;2106594;28;20118;-46
2022/08/24 11:20:38;;;;;;;0.35;0.35;;;;;;;27.28;48.73;98575.38;2101673;28;20055;-49
2022/08/24 11:21:46;;;;;;;0.28;0.20;;;;;;;27.30;49.11;98574.03;2104994;28;20466;-46
2022/08/24 11:23:01;;;;;;;0.20;0.20;;;;;;;27.29;48.81;98577.03;2103589;28;20055;-47
2022/08/24 11:24:03;;;;;;;0.22;0.20;;;;;;;27.31;48.97;98578.41;2101752;28;20052;-48
2022/08/24 11:25:14;;;;;;;0.20;0.20;;;;;;;27.32;48.78;98574.59;2104469;28;20105;-47
2022/08/24 11:26:19;;;;;;;;;;;;;;;27.24;49.26;98577.78;2102032;28;20714;-45
2022/08/24 11:27:29;;;;;;;0.30;0.20;;;;;;;27.28;49.08;98573.47;2102029;28;19955;-49
2022/08/24 11:28:36;;;;;;;1.17;0.30;;;;;;;27.33;48.58;98568.06;2105736;28;20044;-45
2022/08/24 11:29:58;;;;;;;0.30;0.30;;;;;;;27.35;49.07;98573.25;2102958;28;20056;-46
2022/08/24 11:31:02;;;;;;;1.15;0.20;;;;;;;27.36;48.86;98581.16;2101422;28;20426;-48
2022/08/24 11:32:03;;;;;;;0.75;0.20;;;;;;;27.40;48.61;98581.44;2101914;28;20096;-45
2022/08/24 11:33:07;;;;;;;0.40;0.40;;;;;;;27.42;48.45;98567.59;2103100;28;20060;-48
2022/08/24 11:34:09;;;;;;;0.40;0.40;;;;;;;27.43;48.76;98572.75;2101211;28;20052;-45
2022/08/24 11:35:22;;;;;;;0.60;0.28;;;;;;;27.44;48.62;98576.28;2103976;28;20075;-46
2022/08/24 11:36:27;;;;;;;0.40;0.40;;;;;;;27.46;48.54;98569.50;2101620;28;20055;-47
2022/08/24 11:37:33;;;;;;;0.43;0.43;;;;;;;27.47;48.60;98573.03;2102788;28;20915;-46
2022/08/24 11:38:35;;;;;;;0.55;0.40;;;;;;;27.47;48.30;98571.16;2105282;28;20074;-46
2022/08/24 11:39:37;;;;;;;2.28;0.38;;;;;;;27.48;48.73;98567.34;2105928;28;20075;-46
2022/08/24 11:40:44;;;;;;;0.50;0.40;;;;;;;27.51;48.47;98563.25;2101750;28;20079;-47
2022/08/24 11:41:54;;;;;;;0.75;0.70;;;;;;;27.51;48.57;98568.72;2105771;28;20410;-45
2022/08/24 11:43:25;;;;;;;0.52;0.30;;;;;;;27.48;48.67;98571.97;2102186;28;20119;-46
2022/08/24 11:44:37;;;;;;;0.30;0.30;;;;;;;27.47;48.77;98576.59;2106960;28;20047;-46
2022/08/24 11:45:45;;;;;;;0.40;0.40;;;;;;;27.51;48.75;98577.69;2101704;28;20059;-45
2022/08/24 11:46:55;;;;;;;0.20;0.20;;;;;;;27.52;48.65;98567.63;2107892;28;20052;-47
2022/08/24 11:48:06;;;;;;;0.93;0.30;;;;;;;27.52;48.46;98573.06;2101731;28;20083;-49
2022/08/24 11:49:19;;;;;;;0.88;0.52;;;;;;;27.54;48.42;98568.19;2105656;28;20048;-48
2022/08/24 11:50:32;;;;;;;0.30;0.30;;;;;;;27.54;48.36;98568.19;2101473;28;20067;-49
2022/08/24 11:51:41;;;;;;;0.20;0.20;;;;;;;27.55;48.59;98556.19;2104710;28;20048;-47
2022/08/24 11:52:54;;;;;;;1.00;0.30;;;;;;;27.54;48.24;98563.56;2101735;28;20506;-49
2022/08/24 11:54:03;;;;;;;0.30;0.30;;;;;;;27.55;48.36;98570.66;2101483;28;20599;-51
2022/08/24 11:55:11;;;;;;;0.40;0.40;;;;;;;27.56;48.41;98577.72;2104324;28;20060;-46
2022/08/24 11:56:25;;;;;;;0.30;0.30;;;;;;;27.56;48.28;98580.47;2106831;28;20051;-47
2022/08/24 11:57:34;;;;;;;1.23;0.40;;;;;;;27.57;48.24;98570.38;2105419;28;20138;-49
2022/08/24 11:58:49;;;;;;;0.47;0.10;;;;;;;27.58;48.12;98572.84;2103645;28;20564;-48
2022/08/24 11:59:56;;;;;;;1.00;0.38;;;;;;;27.58;48.25;98572.84;2100882;28;20057;-51
2022/08/24 12:01:04;;;;;;;0.38;0.32;;;;;;;27.61;48.21;98572.31;2102950;28;20047;-47
2022/08/24 12:02:11;;;;;;;0.32;0.30;;;;;;;27.62;48.01;98573.13;2102223;28;20052;-48
2022/08/24 12:03:38;;;;;;;0.30;0.30;;;;;;;27.62;48.19;98576.66;2101825;28;20059;-49
2022/08/24 12:04:49;;;;;;;0.63;0.28;;;;;;;27.61;48.17;98566.06;2101069;28;20052;-47
2022/08/24 12:05:55;;;;;;;;;;;;;;;27.52;48.54;98575.78;2102384;28;20052;-49
2022/08/24 12:07:11;;;;;;;1.67;0.40;;;;;;;27.57;48.40;98581.28;2101560;28;19924;-45
2022/08/24 12:08:22;;;;;;;0.90;0.52;;;;;;;27.59;48.22;98568.22;2097096;28;20048;-47
2022/08/24 12:09:38;;;;;;;0.73;0.20;;;;;;;27.60;48.40;98573.38;2096304;28;20045;-46
2022/08/24 12:10:48;;;;;;;0.43;0.40;;;;;;;27.62;48.23;98567.69;2097277;28;20453;-49
2022/08/24 12:11:58;;;;;;;1.45;0.35;;;;;;;27.64;48.10;98565.53;2098685;28;20513;-50
2022/08/24 12:13:06;;;;;;;0.80;0.43;;;;;;;27.63;48.16;98558.41;2096390;28;20212;-48
2022/08/24 12:14:15;;;;;;;0.30;0.30;;;;;;;27.66;48.27;98563.34;2097302;28;20075;-50
2022/08/24 12:15:23;;;;;;;0.30;0.22;;;;;;;27.66;48.06;98551.63;2096840;28;20665;-47
2022/08/24 12:16:29;;;;;;;0.20;0.20;;;;;;;27.68;48.08;98563.06;2099174;28;20052;-46
2022/08/24 12:17:37;;;;;;;0.40;0.35;;;;;;;27.70;48.19;98563.63;2100240;28;20106;-49
2022/08/24 12:18:47;;;;;;;0.32;0.32;;;;;;;27.69;48.16;98557.34;2100162;28;20058;-47
2022/08/24 12:19:50;;;;;;;0.95;0.30;;;;;;;27.69;48.03;98562.78;2098167;28;20040;-48
2022/08/24 12:20:54;;;;;;;0.40;0.40;;;;;;;27.71;47.86;98555.19;2095811;28;20055;-50
2022/08/24 12:22:00;;;;;;;0.40;0.35;;;;;;;27.72;48.32;98561.44;2097147;28;20052;-49
2022/08/24 12:23:07;;;;;;;0.70;0.40;;;;;;;27.71;48.25;98566.09;2097698;28;20040;-50
2022/08/24 12:24:13;;;;;;;0.40;0.40;;;;;;;27.72;48.05;98556.84;2098824;28;20049;-49
2022/08/24 12:26:40;;;;;;;0.30;0.30;;;;;;;27.73;48.07;98558.47;2097696;28;20049;-47
2022/08/24 12:27:43;;;;;;;0.28;0.20;;;;;;;27.74;48.04;98554.66;2103113;28;20043;-46
2022/08/24 12:28:49;;;;;;;0.70;0.50;;;;;;;27.76;47.97;98552.47;2095507;28;20052;-48
2022/08/24 12:29:57;;;;;;;0.20;0.20;;;;;;;27.76;47.98;98557.94;2099425;28;20135;-47
2022/08/24 12:31:05;;;;;;;0.30;0.30;;;;;;;27.75;48.13;98556.31;2101700;28;20520;-50
2022/08/24 12:32:11;;;;;;;0.35;0.20;;;;;;;27.74;48.04;98560.09;2097733;28;20045;-48
2022/08/24 12:33:14;;;;;;;0.30;0.30;;;;;;;27.77;47.85;98554.13;2095274;28;20052;-47
2022/08/24 12:34:21;;;;;;;0.30;0.30;;;;;;;27.77;47.73;98559.56;2088280;28;20070;-46
2022/08/24 12:35:27;;;;;;;0.30;0.30;;;;;;;27.79;48.05;98557.44;2096624;28;20135;-48
2022/08/24 12:36:36;;;;;;;0.90;0.35;;;;;;;27.78;47.95;98550.31;2095525;28;20417;-50
2022/08/24 12:37:43;;;;;;;0.30;0.30;;;;;;;27.78;47.89;98560.41;2098927;28;20059;-49
2022/08/24 12:38:49;;;;;;;0.60;0.43;;;;;;;27.78;47.79;98558.50;2094845;28;20696;-46
2022/08/24 12:39:59;;;;;;;0.68;0.40;;;;;;;27.80;47.66;98560.97;2096887;28;20048;-50
2022/08/24 12:41:05;;;;;;;0.30;0.30;;;;;;;27.79;48.09;98559.31;2096402;28;20541;-49
2022/08/24 12:42:15;;;;;;;0.30;0.30;;;;;;;27.77;48.12;98559.56;2097690;28;20104;-48
2022/08/24 12:43:24;;;;;;;0.40;0.40;;;;;;;27.78;47.58;98561.22;2100277;28;20052;-49
2022/08/24 12:44:40;;;;;;;0.20;0.20;;;;;;;27.79;47.94;98568.34;2097390;28;20143;-48
2022/08/24 12:45:42;;;;;;;0.30;0.30;;;;;;;27.79;47.72;98562.88;2099251;28;20044;-50
2022/08/24 12:46:51;;;;;;;0.20;0.20;;;;;;;27.81;47.79;98560.72;2097230;28;20048;-49
2022/08/24 12:47:58;;;;;;;0.20;0.20;;;;;;;27.81;47.52;98552.53;2101246;28;20059;-50
2022/08/24 12:49:05;;;;;;;0.40;0.40;;;;;;;27.83;47.66;98558.56;2095609;28;20059;-49
2022/08/24 12:50:14;;;;;;;0.20;0.20;;;;;;;27.81;47.75;98547.09;2109497;28;20044;-47
2022/08/24 12:51:23;;;;;;;0.30;0.30;;;;;;;27.83;47.70;98546.81;2106182;28;20047;-48
2022/08/24 12:52:54;;;;;;;0.30;0.22;;;;;;;27.81;47.77;98547.09;2104376;28;20036;-50
2022/08/24 12:54:07;;;;;;;0.22;0.22;;;;;;;27.79;47.90;98551.97;2107038;27;20114;-48
2022/08/24 12:55:24;;;;;;;0.30;0.30;;;;;;;27.79;48.02;98551.97;2104062;28;20054;-50
2022/08/24 12:56:47;;;;;;;0.20;0.20;;;;;;;27.82;47.94;98546.00;2105465;28;20398;-50
2022/08/24 12:57:56;;;;;;;0.20;0.20;;;;;;;27.82;47.71;98548.72;2105814;27;20048;-52
2022/08/24 12:59:07;;;;;;;1.30;0.40;;;;;;;27.83;47.77;98541.34;2105122;28;20138;-45
2022/08/24 13:00:16;;;;;;;0.50;0.32;;;;;;;27.83;47.99;98547.66;2105961;28;20063;-50
2022/08/24 13:01:19;;;;;;;0.50;0.32;;;;;;;27.84;47.73;98543.84;2104773;28;20131;-50
2022/08/24 13:02:29;;;;;;;1.48;0.40;;;;;;;27.87;47.45;98542.47;2107391;27;20081;-49
2022/08/24 13:03:35;;;;;;;0.65;0.40;;;;;;;27.87;47.67;98538.94;2108458;27;20486;-49
2022/08/24 13:04:40;;;;;;;0.52;0.50;;;;;;;27.88;47.74;98546.03;2105839;28;20055;-49
2022/08/24 13:05:47;;;;;;;0.50;0.50;;;;;;;27.89;47.74;98544.94;2106240;27;20611;-48
2022/08/24 13:06:51;;;;;;;0.45;0.30;;;;;;;27.88;47.41;98544.13;2104194;28;20059;-48
2022/08/24 13:08:08;;;;;;;0.30;0.30;;;;;;;27.88;47.77;98537.84;2104744;28;20504;-50
2022/08/24 13:09:26;;;;;;;1.05;0.38;;;;;;;27.86;47.76;98535.41;2103350;28;20327;-49
2022/08/24 13:10:38;;;;;;;0.28;0.28;;;;;;;27.85;47.36;98540.00;2107488;28;20055;-46
2022/08/24 13:11:38;;;;;;;0.70;0.40;;;;;;;27.89;47.71;98544.94;2108021;27;20051;-47
2022/08/24 13:12:53;;;;;;;0.30;0.30;;;;;;;27.89;47.48;98534.03;2103915;28;20046;-48
2022/08/24 13:14:16;;;;;;;0.52;0.25;;;;;;;27.87;47.61;98539.75;2108272;28;20119;-52
2022/08/24 13:15:47;;;;;;;0.50;0.40;;;;;;;27.87;47.68;98536.22;2106197;28;20126;-48
2022/08/24 13:17:06;;;;;;;0.20;0.20;;;;;;;27.85;47.70;98544.66;2096362;28;21268;-49
2022/08/24 13:18:49;;;;;;;1.65;0.38;;;;;;;27.86;47.63;98540.84;2099431;28;20060;-49
2022/08/24 13:20:18;;;;;;;0.40;0.20;;;;;;;27.83;47.96;98547.66;2095648;28;20492;-50
2022/08/24 13:21:42;;;;;;;0.38;0.30;;;;;;;27.84;47.55;98543.84;2099891;28;20048;-47
2022/08/24 13:22:59;;;;;;;0.30;0.30;;;;;;;27.88;47.69;98548.75;2103631;28;20047;-47
2022/08/24 13:24:47;;;;;;;0.55;0.32;;;;;;;27.86;47.72;98538.13;2105147;28;20464;-48
2022/08/24 13:25:56;;;;;;;0.28;0.28;;;;;;;27.86;47.91;98543.59;2104941;28;20048;-46
2022/08/24 13:27:47;;;;;;;0.40;0.30;;;;;;;27.87;47.68;98539.75;2103360;28;20044;-46
2022/08/24 13:28:54;;;;;;;0.25;0.25;;;;;;;27.88;47.65;98537.84;2104399;28;20054;-49
2022/08/24 13:30:05;;;;;;;0.35;0.30;;;;;;;27.89;47.88;98525.84;2103459;28;20048;-47
2022/08/24 13:31:27;;;;;;;0.25;0.25;;;;;;;27.87;47.45;98541.66;2108980;28;20092;-47
2022/08/24 13:32:34;;;;;;;0.25;0.25;;;;;;;27.91;47.63;98532.66;2108081;27;20055;-46
2022/08/24 13:33:41;;;;;;;0.40;0.30;;;;;;;27.93;47.15;98535.97;2104313;28;20415;-49
2022/08/24 13:34:45;;;;;;;0.28;0.28;;;;;;;27.96;47.44;98526.44;2105561;27;20051;-48
2022/08/24 13:36:06;;;;;;;0.40;0.40;;;;;;;27.94;47.36;98520.41;2106644;28;20097;-47
2022/08/24 13:37:14;;;;;;;0.30;0.30;;;;;;;27.93;47.43;98529.69;2107045;28;20044;-49
2022/08/24 13:39:05;;;;;;;0.20;0.20;;;;;;;27.91;47.60;98531.84;2107580;28;20040;-49
2022/08/24 13:40:19;;;;;;;0.75;0.40;;;;;;;27.90;47.50;98525.59;2096881;28;20466;-52
2022/08/24 13:41:34;;;;;;;0.38;0.38;;;;;;;27.91;47.34;98527.22;2107514;28;20056;-48
2022/08/24 13:43:02;;;;;;;1.15;0.30;;;;;;;27.92;47.51;98528.06;2100322;27;20243;-48
2022/08/24 13:44:11;;;;;;;0.20;0.20;;;;;;;27.95;47.47;98532.97;2097747;28;20044;-48
2022/08/24 13:45:24;;;;;;;0.70;0.30;;;;;;;27.97;47.21;98528.06;2097837;28;20064;-45
2022/08/24 13:46:46;;;;;;;0.20;0.20;;;;;;;27.98;47.30;98527.00;2098196;28;20067;-46
2022/08/24 13:47:53;;;;;;;0.63;0.30;;;;;;;27.95;47.43;98527.53;2099403;28;20048;-47
2022/08/24 13:49:00;;;;;;;0.40;0.40;;;;;;;27.98;47.41;98532.44;2095480;28;20399;-53
2022/08/24 13:50:10;;;;;;;0.32;0.30;;;;;;;28.00;47.28;98525.63;2097956;28;20063;-48
2022/08/24 13:51:27;;;;;;;1.70;0.20;;;;;;;28.00;46.94;98522.91;2098936;28;20040;-49
2022/08/24 13:52:41;;;;;;;0.88;0.88;;;;;;;27.98;47.22;98525.06;2098985;28;20053;-50
2022/08/24 13:53:53;;;;;;;0.30;0.30;;;;;;;28.00;47.21;98530.25;2098290;28;20049;-47
2022/08/24 13:55:15;;;;;;;0.75;0.47;;;;;;;28.00;47.31;98532.97;2097429;28;20130;-50
2022/08/24 13:56:47;;;;;;;0.25;0.20;;;;;;;27.99;47.24;98534.06;2107921;27;20055;-50
2022/08/24 13:58:03;;;;;;;0.43;0.20;;;;;;;27.99;47.14;98536.78;2091354;28;20066;-46
2022/08/24 13:59:10;;;;;;;0.43;0.30;;;;;;;28.01;47.21;98534.63;2104372;28;20521;-45
2022/08/24 14:00:34;;;;;;;0.32;0.30;;;;;;;28.03;47.12;98529.72;2106731;27;20047;-48
2022/08/24 14:01:44;;;;;;;0.28;0.28;;;;;;;28.02;47.03;98538.97;2106371;28;20405;-49
2022/08/24 14:03:03;;;;;;;0.32;0.32;;;;;;;28.01;47.06;98530.00;2108541;28;20051;-49
2022/08/24 14:04:19;;;;;;;0.47;0.40;;;;;;;28.01;47.16;98535.44;2103488;28;20056;-49
2022/08/24 14:05:31;;;;;;;0.20;0.20;;;;;;;28.01;47.06;98532.72;2106019;27;20062;-50
2022/08/24 14:06:40;;;;;;;0.47;0.47;;;;;;;28.02;47.00;98534.34;2107557;28;20050;-51
2022/08/24 14:07:52;;;;;;;0.40;0.40;;;;;;;28.04;47.02;98531.34;2107304;27;20062;-51
2022/08/24 14:09:05;;;;;;;0.17;0.17;;;;;;;28.03;46.84;98524.28;2108316;28;20507;-50
2022/08/24 14:10:13;;;;;;;1.08;0.28;;;;;;;28.06;47.12;98518.28;2109388;28;20051;-45
2022/08/24 14:11:22;;;;;;;0.50;0.20;;;;;;;28.05;46.78;98527.53;2106919;28;20492;-46
2022/08/24 14:12:49;;;;;;;0.73;0.40;;;;;;;28.04;46.82;98523.19;2107829;28;20497;-47
2022/08/24 14:14:00;;;;;;;1.05;0.30;;;;;;;28.05;46.84;98527.53;2106707;28;20055;-47
2022/08/24 14:15:13;;;;;;;0.38;0.38;;;;;;;28.05;47.08;98525.66;2105124;27;20052;-47
2022/08/24 14:18:07;;;;;;;0.28;0.25;;;;;;;28.04;47.00;98534.09;2108316;28;20043;-46
2022/08/24 14:19:24;;;;;;;0.38;0.30;;;;;;;28.02;47.08;98528.88;2105412;28;20054;-45
2022/08/24 14:21:04;;;;;;;0.43;0.20;;;;;;;28.00;47.13;98528.34;2106996;28;20048;-51
2022/08/24 14:22:20;;;;;;;0.20;0.15;;;;;;;28.01;47.24;98534.63;2107068;28;20044;-49
2022/08/24 14:23:35;;;;;;;0.35;0.30;;;;;;;28.04;46.80;98531.34;2106892;28;20043;-47
2022/08/24 14:24:40;;;;;;;0.20;0.20;;;;;;;28.07;46.74;98525.38;2107350;28;20158;-49
2022/08/24 14:25:42;;;;;;;0.40;0.40;;;;;;;28.09;46.75;98523.19;2106372;27;20044;-51
2022/08/24 14:27:09;;;;;;;0.30;0.20;;;;;;;28.06;46.79;98523.75;2106317;28;20445;-51
2022/08/24 14:28:38;;;;;;;0.20;0.20;;;;;;;28.04;47.04;98532.19;2105697;28;20052;-46
2022/08/24 14:29:44;;;;;;;0.20;0.20;;;;;;;28.06;46.88;98529.19;2104485;28;20067;-48
2022/08/24 14:30:47;;;;;;;0.40;0.40;;;;;;;28.09;46.81;98530.56;2108615;27;20093;-49
2022/08/24 14:32:26;;;;;;;0.95;0.30;;;;;;;28.04;47.15;98536.81;2107711;28;20052;-50
2022/08/24 14:33:33;;;;;;;0.10;0.10;;;;;;;28.09;46.88;98536.03;2105227;28;20773;-49
2022/08/24 14:34:41;;;;;;;0.20;0.20;;;;;;;28.09;46.83;98534.09;2107084;28;20048;-47
2022/08/24 14:35:46;;;;;;;0.43;0.43;;;;;;;28.11;46.42;98526.50;2105807;28;20112;-52
2022/08/24 14:36:54;;;;;;;0.20;0.20;;;;;;;28.12;46.71;98538.22;2108145;28;20052;-47
2022/08/24 14:38:09;;;;;;;0.20;0.20;;;;;;;28.12;46.89;98528.13;2098620;28;20048;-48
2022/08/24 14:39:26;;;;;;;0.20;0.20;;;;;;;28.10;46.74;98534.91;2107920;28;20052;-49
2022/08/24 14:40:32;;;;;;;1.13;0.40;;;;;;;28.10;46.53;98524.81;2106765;28;20052;-50
2022/08/24 14:41:58;;;;;;;0.55;0.50;;;;;;;28.09;46.66;98528.66;2106217;28;20044;-53
2022/08/24 14:43:12;;;;;;;1.48;0.20;;;;;;;28.10;46.67;98519.38;2106406;28;20048;-51
2022/08/24 14:44:48;;;;;;;0.40;0.30;;;;;;;28.06;46.85;98527.28;2107738;28;20044;-52
2022/08/24 14:45:57;;;;;;;0.75;0.30;;;;;;;28.10;46.92;98521.28;2106114;28;20040;-49
2022/08/24 14:47:06;;;;;;;0.20;0.20;;;;;;;28.11;46.87;98531.94;2107864;28;20048;-50
2022/08/24 14:48:18;;;;;;;0.30;0.30;;;;;;;28.14;46.56;98519.66;2106270;28;20051;-52
2022/08/24 14:49:28;;;;;;;0.22;0.22;;;;;;;28.14;46.42;98509.59;2107422;28;20070;-51
2022/08/24 14:50:38;;;;;;;0.73;0.38;;;;;;;28.16;46.62;98520.22;2106481;28;20059;-52
2022/08/24 14:51:53;;;;;;;0.30;0.30;;;;;;;28.12;46.67;98519.94;2105829;28;20127;-52
2022/08/24 14:53:09;;;;;;;1.50;0.47;;;;;;;28.12;46.53;98521.84;2106294;28;20067;-47
2022/08/24 14:54:24;;;;;;;0.50;0.40;;;;;;;28.13;46.45;98523.47;2107399;28;20536;-47
2022/08/24 14:55:34;;;;;;;0.13;0.13;;;;;;;28.12;46.38;98525.38;2104627;28;20051;-48
2022/08/24 14:56:52;;;;;;;0.30;0.25;;;;;;;28.14;46.40;98519.66;2104824;28;20040;-50
2022/08/24 14:58:10;;;;;;;0.35;0.30;;;;;;;28.12;46.70;98528.13;2107309;28;20130;-52
2022/08/24 14:59:22;;;;;;;0.15;0.15;;;;;;;28.14;46.73;98519.66;2104620;28;20202;-49
2022/08/24 15:00:33;;;;;;;0.38;0.20;;;;;;;28.14;46.43;98525.94;2107880;28;20044;-50
2022/08/24 15:01:38;;;;;;;;;;;;;;;28.03;46.82;98519.63;2109358;28;20735;-49
2022/08/24 15:03:08;;;;;;;0.28;0.22;;;;;;;28.07;46.77;98520.72;2107608;28;19965;-46
2022/08/24 15:04:36;;;;;;;0.57;0.30;;;;;;;28.10;46.78;98519.38;2106168;28;20533;-46
2022/08/24 15:05:45;;;;;;;0.75;0.38;;;;;;;28.11;46.70;98515.59;2106590;28;20043;-47
2022/08/24 15:06:49;;;;;;;0.32;0.32;;;;;;;28.15;46.55;98521.31;2108208;28;20490;-49
2022/08/24 15:07:57;;;;;;;0.57;0.50;;;;;;;28.16;46.65;98514.75;2106033;28;20060;-47
2022/08/24 15:09:08;;;;;;;0.70;0.47;;;;;;;28.18;46.53;98518.84;2102105;28;20043;-50
2022/08/24 15:10:13;;;;;;;0.30;0.30;;;;;;;28.17;46.44;98509.03;2106642;28;20051;-47
2022/08/24 15:11:18;;;;;;;0.28;0.28;;;;;;;28.17;46.46;98519.94;2106684;28;20800;-49
2022/08/24 15:12:28;;;;;;;0.32;0.32;;;;;;;28.19;46.74;98516.94;2106845;28;20036;-50
2022/08/24 15:13:37;;;;;;;0.30;0.30;;;;;;;28.19;46.34;98523.19;2106621;28;20058;-51
2022/08/24 15:14:41;;;;;;;0.50;0.30;;;;;;;28.20;46.55;98524.88;2104165;28;20043;-46
2022/08/24 15:15:51;;;;;;;0.57;0.30;;;;;;;28.19;46.45;98523.19;2106146;27;20053;-49
2022/08/24 15:17:01;;;;;;;0.40;0.35;;;;;;;28.21;46.54;98520.22;2106840;28;20051;-46
2022/08/24 15:18:15;;;;;;;0.20;0.20;;;;;;;28.21;46.49;98522.94;2101604;28;22325;-51
2022/08/24 15:19:26;;;;;;;0.10;0.10;;;;;;;28.20;46.50;98524.88;2106603;27;20052;-47
2022/08/24 15:20:46;;;;;;;0.77;0.77;;;;;;;28.18;46.71;98513.41;2107259;28;20051;-50
2022/08/24 15:21:53;;;;;;;0.22;0.22;;;;;;;28.23;46.44;98523.50;2106522;28;20056;-46
2022/08/24 15:23:00;;;;;;;0.20;0.20;;;;;;;28.23;46.64;98521.59;2106423;28;20170;-51
2022/08/24 15:24:17;;;;;;;0.40;0.20;;;;;;;28.21;46.65;98526.50;2103391;28;20126;-52
2022/08/24 15:25:32;;;;;;;0.17;0.17;;;;;;;28.22;46.65;98519.13;2106564;28;20043;-49
2022/08/24 15:26:55;;;;;;;0.30;0.30;;;;;;;28.21;46.40;98526.50;2105937;28;20121;-50
2022/08/24 15:27:58;;;;;;;0.50;0.20;;;;;;;28.21;46.66;98517.50;2105798;28;20059;-49
2022/08/24 15:29:11;;;;;;;0.40;0.40;;;;;;;28.22;46.38;98528.16;2110279;28;20585;-47
2022/08/24 15:30:22;;;;;;;0.40;0.38;;;;;;;28.22;46.45;98522.69;2107957;28;20093;-49
2022/08/24 15:31:26;;;;;;;0.20;0.20;;;;;;;28.22;46.52;98528.16;2107217;28;20051;-50
2022/08/24 15:32:43;;;;;;;0.50;0.40;;;;;;;28.21;46.63;98526.50;2105214;28;20130;-49
2022/08/24 15:33:53;;;;;;;0.22;0.22;;;;;;;28.22;46.59;98522.69;2106173;28;20064;-51
2022/08/24 15:34:57;;;;;;;0.20;0.20;;;;;;;28.22;46.35;98530.88;2107331;28;20051;-49
2022/08/24 15:36:08;;;;;;;0.28;0.20;;;;;;;28.23;46.46;98532.50;2104302;28;20468;-45
2022/08/24 15:37:10;;;;;;;1.45;0.30;;;;;;;28.22;46.70;98532.75;2104124;28;20043;-50
2022/08/24 15:38:20;;;;;;;0.63;0.35;;;;;;;28.23;46.50;98524.31;2106834;28;20048;-51
2022/08/24 15:39:26;;;;;;;0.40;0.20;;;;;;;28.25;46.43;98524.03;2107760;28;20079;-49
2022/08/24 15:40:31;;;;;;;0.30;0.30;;;;;;;28.26;46.35;98534.69;2106930;28;20320;-51
2022/08/24 15:41:36;;;;;;;0.30;0.30;;;;;;;28.25;46.37;98527.59;2109361;28;20050;-47
2022/08/24 15:42:38;;;;;;;0.80;0.30;;;;;;;28.25;46.06;98527.59;2108342;28;20051;-51
2022/08/24 15:43:44;;;;;;;0.17;0.17;;;;;;;28.28;46.32;98527.06;2108629;28;20793;-51
2022/08/24 15:44:49;;;;;;;0.20;0.20;;;;;;;28.28;46.40;98528.97;2107773;28;20039;-45
2022/08/24 15:45:51;;;;;;;0.20;0.20;;;;;;;28.27;46.46;98524.59;2106093;28;20134;-51
2022/08/24 15:46:56;;;;;;;0.30;0.30;;;;;;;28.26;46.40;98526.50;2108593;28;20055;-51
2022/08/24 15:47:59;;;;;;;0.20;0.20;;;;;;;28.28;46.34;98529.78;2107181;28;20059;-50
2022/08/24 15:49:06;;;;;;;0.20;0.20;;;;;;;28.30;46.33;98529.50;2107614;27;20087;-51
2022/08/24 15:50:20;;;;;;;0.17;0.17;;;;;;;28.31;46.38;98522.97;2108007;27;20585;-48
2022/08/24 15:51:35;;;;;;;0.30;0.30;;;;;;;28.27;46.36;98521.88;2108033;27;20126;-46
2022/08/24 15:52:51;;;;;;;0.13;0.13;;;;;;;28.25;46.42;98521.31;2106940;28;20044;-50
2022/08/24 15:53:52;;;;;;;0.17;0.17;;;;;;;28.25;46.30;98524.03;2105531;27;20135;-49
2022/08/24 15:55:00;;;;;;;1.23;0.40;;;;;;;28.24;46.48;98525.13;2109315;27;20078;-48
2022/08/24 15:56:26;;;;;;;0.10;0.10;;;;;;;28.26;46.31;98531.97;2108930;27;20052;-51
2022/08/24 15:57:31;;;;;;;0.50;0.30;;;;;;;28.28;46.19;98529.78;2108113;28;20084;-51
2022/08/24 15:58:34;;;;;;;0.13;0.13;;;;;;;28.31;46.34;98533.06;2110348;28;20051;-51
2022/08/24 15:59:47;;;;;;;0.38;0.38;;;;;;;28.28;46.14;98531.69;2109846;28;20079;-52
2022/08/24 16:02:25;;;;;;;0.55;0.10;;;;;;;28.27;46.36;98527.31;2106759;27;20048;-46
2022/08/24 16:03:42;;;;;;;0.43;0.43;;;;;;;28.29;46.31;98530.59;2108272;27;20370;-46
2022/08/24 16:04:48;;;;;;;0.40;0.40;;;;;;;28.32;45.97;98531.97;2109262;28;20047;-50
2022/08/24 16:05:52;;;;;;;0.65;0.20;;;;;;;28.30;46.40;98532.22;2106952;28;20040;-50
2022/08/24 16:06:54;;;;;;;0.20;0.20;;;;;;;28.32;46.21;98532.78;2105761;28;20051;-45
2022/08/24 16:08:08;;;;;;;0.77;0.40;;;;;;;28.32;46.08;98529.25;2107886;28;20413;-51
2022/08/24 16:09:30;;;;;;;0.32;0.30;;;;;;;28.30;46.42;98526.78;2108889;28;20054;-53
2022/08/24 16:10:34;;;;;;;0.10;0.10;;;;;;;28.31;46.32;98533.06;2104638;27;20052;-48
2022/08/24 16:11:39;;;;;;;0.20;0.20;;;;;;;28.30;46.16;98526.78;2108870;27;20066;-51
2022/08/24 16:12:41;;;;;;;0.30;0.30;;;;;;;28.30;46.32;98529.50;2107153;27;20098;-46
2022/08/24 16:13:42;;;;;;;0.28;0.28;;;;;;;28.31;46.33;98533.06;2106328;28;20043;-48
2022/08/24 16:14:47;;;;;;;0.20;0.20;;;;;;;28.33;46.02;98528.16;2106200;28;20054;-51
2022/08/24 16:15:50;;;;;;;0.38;0.30;;;;;;;28.36;46.23;98533.06;2107782;28;20051;-49
2022/08/24 16:16:52;;;;;;;0.40;0.30;;;;;;;28.34;46.17;98530.63;2108378;27;20056;-49
2022/08/24 16:17:58;;;;;;;0.20;0.20;;;;;;;28.36;46.19;98524.88;2108887;28;20048;-48
2022/08/24 16:19:01;;;;;;;0.30;0.28;;;;;;;28.35;46.20;98525.97;2107680;28;20132;-49
2022/08/24 16:20:06;;;;;;;0.45;0.30;;;;;;;28.37;46.13;98529.25;2105878;28;20052;-47
2022/08/24 16:21:14;;;;;;;0.20;0.20;;;;;;;28.35;46.02;98520.53;2106663;27;20063;-50
2022/08/24 16:22:28;;;;;;;0.40;0.40;;;;;;;28.34;45.99;98524.34;2108524;27;20047;-48
2022/08/24 16:23:30;;;;;;;0.30;0.25;;;;;;;28.33;46.25;98525.41;2107001;28;20082;-50
2022/08/24 16:24:35;;;;;;;0.30;0.28;;;;;;;28.35;46.30;98523.25;2107310;28;20059;-48
2022/08/24 16:25:38;;;;;;;0.20;0.20;;;;;;;28.35;46.23;98520.53;2107485;27;20048;-54
2022/08/24 16:26:57;;;;;;;0.25;0.20;;;;;;;28.30;46.15;98532.22;2105863;27;20043;-46
2022/08/24 16:28:08;;;;;;;0.30;0.20;;;;;;;28.31;46.43;98525.69;2107576;27;20051;-52
2022/08/24 16:29:08;;;;;;;0.30;0.30;;;;;;;28.34;46.22;98535.25;2108851;28;20433;-52
2022/08/24 16:30:21;;;;;;;0.82;0.28;;;;;;;28.32;46.26;98532.78;2109351;27;20050;-51
2022/08/24 16:31:50;;;;;;;0.30;0.30;;;;;;;28.28;46.28;98526.25;2107296;28;20040;-49
2022/08/24 16:32:53;;;;;;;0.28;0.28;;;;;;;28.29;46.41;98527.88;2108299;27;20505;-50